Terminal Aerodrome Forecast
Issued by NWS

Home | Current Version | Previous Version | Text Only | Print | Product List | Glossary On
Versions: 1 2 3 4 5 6 7 8 9 10 11 12 13 14 15 16 17 18 19
000
FTUS42 KGSP 251736
TAFHKY
TAF
KHKY 251736Z 2518/2618 33005KT P6SM FEW060 BKN150
     FM260000 34004KT P6SM BKN200
     FM261400 32006KT P6SM BKN250=

USA.gov is the U.S. government's official web portal to all federal, state and local government web resources and services.